S 386 Casilo — OZZP — position and weather

sailwx.info

Track history (hours):
 
Tides and Currents Weather Stations Pressure Air Temp Water Temp Dewpoint Dewpoint Depression Visibility Wind Speed Wind Dir Waves Ship Positions

S 386 Casilo

Last reported at 2014-Nov-28 02:22 UTC. Time now 2014-Nov-28 13:27 UTC.
Position N 57°43' E 010°35'.

Length 24 m.

Type: Fishing. MMSI: 219948000.

Date/timePositionNaut miles runAvg speedWind from/ knotsBaromVisibWave heightAir tempDewpointWater temp
2014-Nov-28 02:22N 57°43' E 010°35'0 0.0
2014-Nov-28 01:28N 57°43' E 010°35'16 0.9
2014-Nov-27 08:33N 57°59' E 010°35'8 8.2
2014-Nov-27 07:33N 58°07' E 010°32'6 6.2
2014-Nov-27 06:33N 58°13' E 010°29'1 0.9
2014-Nov-27 05:23N 58°13' E 010°27'2 1.8
2014-Nov-27 04:32N 58°13' E 010°24'2 1.8
2014-Nov-27 03:26N 58°13' E 010°20'2 1.9
2014-Nov-27 02:32N 58°13' E 010°17'2 0.3
2014-Nov-26 21:26N 58°12' E 010°14'7 7.5
2014-Nov-26 20:30N 58°13' E 010°28'1 1.0
2014-Nov-26 19:29N 58°13' E 010°26'2 1.9
2014-Nov-26 18:29N 58°13' E 010°22'2 1.9
2014-Nov-26 17:32N 58°13' E 010°19'2 1.9
2014-Nov-26 16:23N 58°13' E 010°15'2 2.0
2014-Nov-26 15:32N 58°12' E 010°12'2 2.1
2014-Nov-26 14:29N 58°11' E 010°08'2 2.1
2014-Nov-26 13:32N 58°10' E 010°05'2 2.5
2014-Nov-26 12:33N 58°09' E 010°01'9 8.5
2014-Nov-26 11:31N 58°12' E 010°16'8 8.7
2014-Nov-26 10:33N 58°14' E 010°32'9 9.3
2014-Nov-26 09:33N 58°17' E 010°48'9 9.1
2014-Nov-26 08:33N 58°20' E 011°05'5 4.8
2014-Nov-26 07:33N 58°21' E 011°14'5 5.5
2014-Nov-26 06:33N 58°23' E 011°04'9 9.3
2014-Nov-26 05:33N 58°29' E 010°50'10 9.6
2014-Nov-26 04:28N 58°35' E 010°34'11 9.4
2014-Nov-26 03:20N 58°40' E 010°16'3 0.3
2014-Nov-25 18:33N 58°43' E 010°20'2 2.1
2014-Nov-25 17:33N 58°41' E 010°22'2 2.0
2014-Nov-25 16:29N 58°39' E 010°25'9 1.8
2014-Nov-25 11:19N 58°47' E 010°15'2 2.0
2014-Nov-25 10:30N 58°46' E 010°17'2 2.0
2014-Nov-25 09:34N 58°44' E 010°19'2 2.1
2014-Nov-25 08:33N 58°43' E 010°22'2 2.1
2014-Nov-25 07:34N 58°41' E 010°25'4 2.0
2014-Nov-25 05:31N 58°38' E 010°30'1 1.4
2014-Nov-25 04:34N 58°38' E 010°27'2 0.1
2014-Nov-24 17:28N 58°37' E 010°28'5 5.4
2014-Nov-24 16:33N 58°34' E 010°36'8 7.6
2014-Nov-24 15:33N 58°30' E 010°48'7 7.4
2014-Nov-24 14:33N 58°26' E 010°60'8 8.0
2014-Nov-24 13:33N 58°20' E 011°11'2 2.0
2014-Nov-24 12:31N 58°22' E 011°15'0 0.0
2014-Nov-24 11:31N 58°22' E 011°15'0 0.0
2014-Nov-24 10:31N 58°22' E 011°15'0 0.0
2014-Nov-24 09:31N 58°22' E 011°15'0 0.0
2014-Nov-24 08:31N 58°22' E 011°15'1 0.8
2014-Nov-24 07:33N 58°21' E 011°14'0 0.0
2014-Nov-24 06:33N 58°21' E 011°14'0 0.0
2014-Nov-24 05:33N 58°21' E 011°14'0 0.0
2014-Nov-24 04:33N 58°21' E 011°14'0 0.0
2014-Nov-24 03:33N 58°21' E 011°14'0 0.0
2014-Nov-24 02:33N 58°21' E 011°14'3 3.3
2014-Nov-24 01:33N 58°19' E 011°09'7 7.1
2014-Nov-24 00:33N 58°17' E 010°56'8 8.0
2014-Nov-23 23:33N 58°15' E 010°41'8 8.4
2014-Nov-23 22:33N 58°12' E 010°26'  
2014-Nov-20 10:14N 57°55' E 010°50'6 9.3
2014-Nov-20 09:33N 58°01' E 010°55'9 9.3
2014-Nov-20 08:33N 58°09' E 011°03'9 9.3
2014-Nov-20 07:33N 58°17' E 011°11'4 3.9
2014-Nov-20 06:32N 58°21' E 011°14'0 0.0
2014-Nov-20 05:32N 58°21' E 011°14'5 4.9
2014-Nov-20 04:33N 58°19' E 011°06'8 8.2
2014-Nov-20 03:33N 58°16' E 010°51'8 8.5
2014-Nov-20 02:33N 58°15' E 010°35'9 8.9
2014-Nov-20 01:33N 58°13' E 010°19'  
Track history (hours):
 
Tides and Currents Weather Stations Pressure Air Temp Water Temp Dewpoint Dewpoint Depression Visibility Wind Speed Wind Dir Waves Ship Positions

S 386 Casilo

Last reported at 2014-Nov-28 02:22 UTC. Time now 2014-Nov-28 13:27 UTC.
Position N 57°43' E 010°35'.

Length 24 m.

Type: Fishing. MMSI: 219948000.

Date/timePositionNaut miles runAvg speedWind from/ knotsBaromVisibWave heightAir tempDewpointWater temp
2014-Nov-28 02:22N 57°43' E 010°35'0 0.0
2014-Nov-28 01:28N 57°43' E 010°35'16 0.9
2014-Nov-27 08:33N 57°59' E 010°35'8 8.2
2014-Nov-27 07:33N 58°07' E 010°32'6 6.2
2014-Nov-27 06:33N 58°13' E 010°29'1 0.9
2014-Nov-27 05:23N 58°13' E 010°27'2 1.8
2014-Nov-27 04:32N 58°13' E 010°24'2 1.8
2014-Nov-27 03:26N 58°13' E 010°20'2 1.9
2014-Nov-27 02:32N 58°13' E 010°17'2 0.3
2014-Nov-26 21:26N 58°12' E 010°14'7 7.5
2014-Nov-26 20:30N 58°13' E 010°28'1 1.0
2014-Nov-26 19:29N 58°13' E 010°26'2 1.9
2014-Nov-26 18:29N 58°13' E 010°22'2 1.9
2014-Nov-26 17:32N 58°13' E 010°19'2 1.9
2014-Nov-26 16:23N 58°13' E 010°15'2 2.0
2014-Nov-26 15:32N 58°12' E 010°12'2 2.1
2014-Nov-26 14:29N 58°11' E 010°08'2 2.1
2014-Nov-26 13:32N 58°10' E 010°05'2 2.5
2014-Nov-26 12:33N 58°09' E 010°01'9 8.5
2014-Nov-26 11:31N 58°12' E 010°16'8 8.7
2014-Nov-26 10:33N 58°14' E 010°32'9 9.3
2014-Nov-26 09:33N 58°17' E 010°48'9 9.1
2014-Nov-26 08:33N 58°20' E 011°05'5 4.8
2014-Nov-26 07:33N 58°21' E 011°14'5 5.5
2014-Nov-26 06:33N 58°23' E 011°04'9 9.3
2014-Nov-26 05:33N 58°29' E 010°50'10 9.6
2014-Nov-26 04:28N 58°35' E 010°34'11 9.4
2014-Nov-26 03:20N 58°40' E 010°16'3 0.3
2014-Nov-25 18:33N 58°43' E 010°20'2 2.1
2014-Nov-25 17:33N 58°41' E 010°22'2 2.0
2014-Nov-25 16:29N 58°39' E 010°25'9 1.8
2014-Nov-25 11:19N 58°47' E 010°15'2 2.0
2014-Nov-25 10:30N 58°46' E 010°17'2 2.0
2014-Nov-25 09:34N 58°44' E 010°19'2 2.1
2014-Nov-25 08:33N 58°43' E 010°22'2 2.1
2014-Nov-25 07:34N 58°41' E 010°25'4 2.0
2014-Nov-25 05:31N 58°38' E 010°30'1 1.4
2014-Nov-25 04:34N 58°38' E 010°27'2 0.1
2014-Nov-24 17:28N 58°37' E 010°28'5 5.4
2014-Nov-24 16:33N 58°34' E 010°36'8 7.6
2014-Nov-24 15:33N 58°30' E 010°48'7 7.4
2014-Nov-24 14:33N 58°26' E 010°60'8 8.0
2014-Nov-24 13:33N 58°20' E 011°11'2 2.0
2014-Nov-24 12:31N 58°22' E 011°15'0 0.0
2014-Nov-24 11:31N 58°22' E 011°15'0 0.0
2014-Nov-24 10:31N 58°22' E 011°15'0 0.0
2014-Nov-24 09:31N 58°22' E 011°15'0 0.0
2014-Nov-24 08:31N 58°22' E 011°15'1 0.8
2014-Nov-24 07:33N 58°21' E 011°14'0 0.0
2014-Nov-24 06:33N 58°21' E 011°14'0 0.0
2014-Nov-24 05:33N 58°21' E 011°14'0 0.0
2014-Nov-24 04:33N 58°21' E 011°14'0 0.0
2014-Nov-24 03:33N 58°21' E 011°14'0 0.0
2014-Nov-24 02:33N 58°21' E 011°14'3 3.3
2014-Nov-24 01:33N 58°19' E 011°09'7 7.1
2014-Nov-24 00:33N 58°17' E 010°56'8 8.0
2014-Nov-23 23:33N 58°15' E 010°41'8 8.4
2014-Nov-23 22:33N 58°12' E 010°26'  
2014-Nov-20 10:14N 57°55' E 010°50'6 9.3
2014-Nov-20 09:33N 58°01' E 010°55'9 9.3
2014-Nov-20 08:33N 58°09' E 011°03'9 9.3
2014-Nov-20 07:33N 58°17' E 011°11'4 3.9
2014-Nov-20 06:32N 58°21' E 011°14'0 0.0
2014-Nov-20 05:32N 58°21' E 011°14'5 4.9
2014-Nov-20 04:33N 58°19' E 011°06'8 8.2
2014-Nov-20 03:33N 58°16' E 010°51'8 8.5
2014-Nov-20 02:33N 58°15' E 010°35'9 8.9
2014-Nov-20 01:33N 58°13' E 010°19'  

Dump ship's entire track history